createdAt,value
2017-01-27T00:00:19.489Z,77.96
2017-01-27T00:00:49.511Z,77.77
2017-01-27T00:01:19.539Z,77.86
2017-01-27T00:01:49.567Z,77.96
2017-01-27T00:02:19.593Z,77.96
2017-01-27T00:02:49.623Z,77.96
2017-01-27T00:03:19.650Z,77.58
2017-01-27T00:03:49.985Z,77.86
2017-01-27T00:04:19.704Z,77.49
2017-01-27T00:04:49.735Z,77.96
2017-01-27T00:05:19.763Z,77.96
2017-01-27T00:05:49.785Z,77.49
2017-01-27T00:06:19.817Z,78.15
2017-01-27T00:06:49.844Z,77.77
2017-01-27T00:07:19.872Z,77.77
2017-01-27T00:07:49.902Z,78.05
2017-01-27T00:08:19.925Z,78.15
2017-01-27T00:08:49.952Z,77.67
2017-01-27T00:09:19.979Z,77.96
2017-01-27T00:09:50.009Z,77.96
2017-01-27T00:10:20.032Z,77.96
2017-01-27T00:10:50.064Z,77.67
2017-01-27T00:11:20.093Z,78.15
2017-01-27T00:11:50.117Z,78.05
2017-01-27T00:12:20.149Z,78.05
2017-01-27T00:12:50.172Z,77.96
2017-01-27T00:13:20.199Z,77.96
2017-01-27T00:13:50.081Z,77.58
2017-01-27T00:14:20.259Z,77.58
2017-01-27T00:14:50.283Z,77.58
2017-01-27T00:15:20.313Z,77.77
2017-01-27T00:15:50.340Z,77.77
2017-01-27T00:16:20.362Z,77.86
2017-01-27T00:16:50.406Z,77.67
2017-01-27T00:17:20.417Z,77.86
2017-01-27T00:17:50.452Z,77.67
2017-01-27T00:18:20.476Z,77.67
2017-01-27T00:18:50.354Z,78.15
2017-01-27T00:19:20.530Z,77.86
2017-01-27T00:19:50.413Z,78.15
2017-01-27T00:20:20.588Z,78.05
2017-01-27T00:20:50.467Z,78.05
2017-01-27T00:21:20.642Z,77.49
2017-01-27T00:21:50.669Z,78.15
2017-01-27T00:22:20.696Z,78.15
2017-01-27T00:22:50.724Z,77.86
2017-01-27T00:23:20.747Z,77.86
2017-01-27T00:23:50.778Z,77.86
2017-01-27T00:24:21.111Z,78.15
2017-01-27T00:24:50.831Z,77.96
2017-01-27T00:25:20.860Z,78.05
2017-01-27T00:25:50.914Z,78.05
2017-01-27T00:26:20.910Z,78.05
2017-01-27T00:26:50.942Z,77.77
2017-01-27T00:27:20.971Z,78.24
2017-01-27T00:27:50.994Z,77.86
2017-01-27T00:28:21.032Z,78.15
2017-01-27T00:28:50.905Z,78.15
2017-01-27T00:29:21.084Z,78.34
2017-01-27T00:29:50.963Z,78.24
2017-01-27T00:30:20.991Z,78.15
2017-01-27T00:30:51.161Z,78.05
2017-01-27T00:31:21.184Z,78.52
2017-01-27T00:31:51.217Z,78.24
2017-01-27T00:32:21.246Z,78.24
2017-01-27T00:32:51.271Z,78.62
2017-01-27T00:33:21.303Z,78.52
2017-01-27T00:33:51.178Z,78.52
2017-01-27T00:34:21.356Z,78.24
2017-01-27T00:34:51.380Z,78.62
2017-01-27T00:35:21.403Z,78.62
2017-01-27T00:35:51.435Z,78.15
2017-01-27T00:36:21.462Z,78.34
2017-01-27T00:36:51.489Z,78.43
2017-01-27T00:37:21.514Z,78.34
2017-01-27T00:37:51.547Z,78.24
2017-01-27T00:38:21.570Z,78.24
2017-01-27T00:38:51.602Z,78.71
2017-01-27T00:39:21.628Z,78.81
2017-01-27T00:39:51.955Z,78.62
2017-01-27T00:40:21.679Z,78.71
2017-01-27T00:40:51.739Z,78.81
2017-01-27T00:41:21.736Z,78.71
2017-01-27T00:41:51.764Z,78.71
2017-01-27T00:42:21.792Z,78.62
2017-01-27T00:42:51.823Z,78.62
2017-01-27T00:43:21.852Z,78.81
2017-01-27T00:43:51.877Z,78.62
2017-01-27T00:44:21.899Z,78.81
2017-01-27T00:44:51.927Z,78.24
2017-01-27T00:45:21.953Z,78.62
2017-01-27T00:45:51.979Z,78.43
2017-01-27T00:46:22.010Z,78.43
2017-01-27T00:46:52.041Z,78.62
2017-01-27T00:47:22.065Z,78.62
2017-01-27T00:47:52.100Z,78.52
2017-01-27T00:48:22.124Z,78.43
2017-01-27T00:48:52.152Z,78.34
2017-01-27T00:49:22.171Z,78.24
2017-01-27T00:49:52.204Z,78.71
2017-01-27T00:50:22.262Z,78.62
2017-01-27T00:50:52.283Z,78.81
2017-01-27T00:51:22.293Z,78.62
2017-01-27T00:51:52.311Z,78.62
2017-01-27T00:52:22.337Z,78.52
2017-01-27T00:52:52.365Z,78.62
2017-01-27T00:53:22.399Z,79
2017-01-27T00:53:52.420Z,78.71
2017-01-27T00:54:22.448Z,78.81
2017-01-27T00:54:52.473Z,78.81
2017-01-27T00:55:22.504Z,78.81
2017-01-27T00:55:52.530Z,78.81
2017-01-27T00:56:22.555Z,78.24
2017-01-27T00:56:52.586Z,78.71
2017-01-27T00:57:22.623Z,78.24
2017-01-27T00:57:52.644Z,78.62
2017-01-27T00:58:22.664Z,78.62
2017-01-27T00:58:52.699Z,78.9
2017-01-27T00:59:22.722Z,78.81
2017-01-27T00:59:52.751Z,78.9
2017-01-27T01:00:23.025Z,78.9
2017-01-27T01:00:52.804Z,78.9
2017-01-27T01:01:22.686Z,78.9
2017-01-27T01:01:52.864Z,78.9
2017-01-27T01:02:22.884Z,78.81
2017-01-27T01:02:52.909Z,78.81
2017-01-27T01:03:22.945Z,78.71
2017-01-27T01:03:52.969Z,78.81
2017-01-27T01:04:22.998Z,78.71
2017-01-27T01:04:53.027Z,78.81
2017-01-27T01:05:23.049Z,78.9
2017-01-27T01:05:53.076Z,78.77
2017-01-27T01:06:23.110Z,78.81
2017-01-27T01:06:52.941Z,78.81
2017-01-27T01:07:23.157Z,78.81
2017-01-27T01:07:53.205Z,78.52
2017-01-27T01:08:23.245Z,78.62
2017-01-27T01:08:53.242Z,78.52
2017-01-27T01:09:23.269Z,78.62
2017-01-27T01:09:53.300Z,78.71
2017-01-27T01:10:23.332Z,78.71
2017-01-27T01:10:53.352Z,78.71
2017-01-27T01:11:23.381Z,78.71
2017-01-27T01:11:53.413Z,78.71
2017-01-27T01:12:23.287Z,78.81
2017-01-27T01:12:53.461Z,78.62
2017-01-27T01:13:23.354Z,78.62
2017-01-27T01:13:53.514Z,78.62
2017-01-27T01:14:23.397Z,78.49
2017-01-27T01:14:53.568Z,78.58
2017-01-27T01:15:23.452Z,78.62
2017-01-27T01:15:53.875Z,79
2017-01-27T01:16:23.650Z,78.62
2017-01-27T01:16:53.683Z,78.71
2017-01-27T01:17:23.577Z,78.39
2017-01-27T01:17:53.734Z,78.02
2017-01-27T01:18:23.614Z,78.2
2017-01-27T01:18:53.790Z,78.2
2017-01-27T01:19:23.814Z,78.3
2017-01-27T01:19:53.842Z,78.3
2017-01-27T01:20:23.869Z,78.3
2017-01-27T01:20:53.899Z,78.3
2017-01-27T01:21:23.927Z,78.11
2017-01-27T01:21:53.959Z,78.02
2017-01-27T01:22:23.976Z,78.2
2017-01-27T01:22:54.006Z,78.2
2017-01-27T01:23:24.033Z,78.86
2017-01-27T01:23:54.063Z,78.86
2017-01-27T01:24:24.087Z,78.67
2017-01-27T01:24:54.116Z,78.58
2017-01-27T01:25:24.141Z,78.58
2017-01-27T01:25:54.171Z,78.77
2017-01-27T01:26:24.048Z,78.3
2017-01-27T01:26:54.226Z,78.3
2017-01-27T01:27:24.253Z,78.58
2017-01-27T01:27:54.277Z,78.67
2017-01-27T01:28:24.159Z,78.49
2017-01-27T01:28:54.331Z,78.58
2017-01-27T01:29:24.211Z,78.77
2017-01-27T01:29:54.238Z,78.86
2017-01-27T01:30:24.415Z,79.05
2017-01-27T01:30:54.449Z,79.05
2017-01-27T01:31:24.348Z,78.77
2017-01-27T01:31:54.502Z,78.96
2017-01-27T01:32:24.526Z,78.96
2017-01-27T01:32:54.561Z,78.96
2017-01-27T01:33:24.431Z,78.96
2017-01-27T01:33:54.605Z,79.05
2017-01-27T01:34:24.633Z,79.05
2017-01-27T01:34:54.515Z,79.05
2017-01-27T01:35:24.693Z,79.05
2017-01-27T01:35:54.572Z,79.05
2017-01-27T01:36:25.093Z,79.05
2017-01-27T01:36:54.626Z,78.86
2017-01-27T01:37:24.797Z,78.96
2017-01-27T01:37:54.818Z,79.33
2017-01-27T01:38:24.850Z,79.24
2017-01-27T01:38:54.895Z,78.96
2017-01-27T01:39:24.908Z,78.67
2017-01-27T01:39:54.933Z,78.9
2017-01-27T01:40:24.960Z,79.05
2017-01-27T01:40:54.984Z,79.52
2017-01-27T01:41:25.014Z,79.19
2017-01-27T01:41:55.041Z,78.9
2017-01-27T01:42:25.071Z,78.9
2017-01-27T01:42:55.096Z,79
2017-01-27T01:43:25.124Z,79.09
2017-01-27T01:43:55.151Z,78.9
2017-01-27T01:44:25.181Z,79
2017-01-27T01:44:55.207Z,78.71
2017-01-27T01:45:25.233Z,78.71
2017-01-27T01:45:55.261Z,79
2017-01-27T01:46:25.286Z,79
2017-01-27T01:46:55.314Z,79
2017-01-27T01:47:25.341Z,79.66
2017-01-27T01:47:55.370Z,79.47
2017-01-27T01:48:25.394Z,79.56
2017-01-27T01:48:55.424Z,79.19
2017-01-27T01:49:25.452Z,79.47
2017-01-27T01:49:55.483Z,79.09
2017-01-27T01:50:25.504Z,79.28
2017-01-27T01:50:55.532Z,79.09
2017-01-27T01:51:25.554Z,79.37
2017-01-27T01:51:55.592Z,78.9
2017-01-27T01:52:25.615Z,79
2017-01-27T01:52:55.643Z,78.71
2017-01-27T01:53:25.668Z,78.9
2017-01-27T01:53:55.700Z,79.28
2017-01-27T01:54:25.724Z,79.37
2017-01-27T01:54:55.754Z,79
2017-01-27T01:55:25.632Z,79.05
2017-01-27T01:55:55.655Z,78.96
2017-01-27T01:56:25.830Z,79.09
2017-01-27T01:56:56.015Z,78.86
2017-01-27T01:57:25.887Z,79.05
2017-01-27T01:57:55.782Z,78.86
2017-01-27T01:58:25.946Z,79.05
2017-01-27T01:58:55.828Z,79.05
2017-01-27T01:59:26.002Z,78.67
2017-01-27T01:59:55.876Z,78.58
2017-01-27T02:00:26.053Z,78.77
2017-01-27T02:00:56.082Z,78.77
2017-01-27T02:01:26.107Z,78.58
2017-01-27T02:01:56.391Z,78.77
2017-01-27T02:02:26.164Z,78.77
2017-01-27T02:02:56.188Z,78.77
2017-01-27T02:03:26.214Z,78.58
2017-01-27T02:03:56.249Z,78.58
2017-01-27T02:04:26.272Z,78.67
2017-01-27T02:04:56.295Z,78.96
2017-01-27T02:05:26.322Z,79.05
2017-01-27T02:05:56.352Z,78.96
2017-01-27T02:06:26.377Z,79.24
2017-01-27T02:06:56.269Z,78.77
2017-01-27T02:07:26.433Z,78.96
2017-01-27T02:07:56.474Z,79.05
2017-01-27T02:08:26.488Z,78.96
2017-01-27T02:08:56.371Z,78.86
2017-01-27T02:09:26.544Z,79.05
2017-01-27T02:09:56.572Z,78.86
2017-01-27T02:10:26.600Z,78.96
2017-01-27T02:10:56.625Z,79.05
2017-01-27T02:11:26.652Z,79.05
2017-01-27T02:11:56.677Z,78.96
2017-01-27T02:12:26.955Z,78.96
2017-01-27T02:12:56.743Z,79.05
2017-01-27T02:13:26.761Z,78.49
2017-01-27T02:13:56.785Z,78.96
2017-01-27T02:14:26.811Z,79.14
2017-01-27T02:14:56.839Z,79.14
2017-01-27T02:15:26.868Z,78.86
2017-01-27T02:15:56.895Z,78.96
2017-01-27T02:16:26.925Z,78.86
2017-01-27T02:16:56.948Z,78.96
2017-01-27T02:17:26.975Z,79.05
2017-01-27T02:17:57.003Z,78.86
2017-01-27T02:18:27.033Z,78.96
2017-01-27T02:18:57.058Z,78.86
2017-01-27T02:19:27.081Z,79.14
2017-01-27T02:19:57.113Z,78.86
2017-01-27T02:20:27.138Z,78.49
2017-01-27T02:20:57.019Z,78.86
2017-01-27T02:21:27.195Z,79.14
2017-01-27T02:21:57.225Z,79.14
2017-01-27T02:22:27.251Z,78.58
2017-01-27T02:22:57.280Z,78.77
2017-01-27T02:23:27.303Z,78.58
2017-01-27T02:23:57.333Z,78.39
2017-01-27T02:24:27.355Z,78.2
2017-01-27T02:24:57.386Z,78.77
2017-01-27T02:25:27.415Z,78.49
2017-01-27T02:25:57.437Z,78.77
2017-01-27T02:26:27.462Z,78.58
2017-01-27T02:26:57.490Z,78.58
2017-01-27T02:27:27.521Z,78.02
2017-01-27T02:27:57.846Z,78.49
2017-01-27T02:28:27.571Z,78.11
2017-01-27T02:28:57.602Z,78.2
2017-01-27T02:29:27.630Z,78.2
2017-01-27T02:29:57.652Z,78.2
2017-01-27T02:30:27.681Z,77.92
2017-01-27T02:30:57.711Z,77.92
2017-01-27T02:31:27.736Z,77.92
2017-01-27T02:31:57.763Z,78.02
2017-01-27T02:32:27.794Z,78.02
2017-01-27T02:32:58.119Z,78.2
2017-01-27T02:33:27.847Z,77.83
2017-01-27T02:33:57.871Z,78.02
2017-01-27T02:34:27.893Z,78.58
2017-01-27T02:34:57.924Z,78.3
2017-01-27T02:35:27.964Z,78.2
2017-01-27T02:35:57.978Z,78.77
2017-01-27T02:36:28.001Z,78.77
2017-01-27T02:36:58.034Z,78.58
2017-01-27T02:37:28.063Z,78.58
2017-01-27T02:37:58.089Z,78.58
2017-01-27T02:38:27.966Z,78.3
2017-01-27T02:38:58.142Z,78.77
2017-01-27T02:39:28.165Z,78.58
2017-01-27T02:39:58.192Z,78.58
2017-01-27T02:40:28.222Z,78.49
2017-01-27T02:40:58.248Z,78.77
2017-01-27T02:41:28.280Z,78.86
2017-01-27T02:41:58.305Z,78.58
2017-01-27T02:42:28.330Z,79.05
2017-01-27T02:42:58.353Z,78.49
2017-01-27T02:43:28.390Z,78.96
2017-01-27T02:43:58.410Z,78.96
2017-01-27T02:44:28.442Z,79.05
2017-01-27T02:44:58.466Z,79.05
2017-01-27T02:45:28.496Z,78.96
2017-01-27T02:45:58.524Z,78.96
2017-01-27T02:46:28.401Z,79.14
2017-01-27T02:46:58.574Z,79.05
2017-01-27T02:47:28.598Z,79.05
2017-01-27T02:47:58.629Z,78.67
2017-01-27T02:48:28.952Z,79.05
2017-01-27T02:48:58.683Z,78.49
2017-01-27T02:49:28.708Z,78.86
2017-01-27T02:49:58.734Z,79.61
2017-01-27T02:50:28.762Z,79.61
2017-01-27T02:50:58.795Z,78.96
2017-01-27T02:51:28.824Z,78.49
2017-01-27T02:51:58.850Z,78.96
2017-01-27T02:52:28.872Z,78.77
2017-01-27T02:52:58.901Z,79.33
2017-01-27T02:53:28.939Z,78.77
2017-01-27T02:53:58.951Z,79.33
2017-01-27T02:54:28.984Z,78.67
2017-01-27T02:54:59.007Z,78.77
2017-01-27T02:55:29.036Z,78.77
2017-01-27T02:55:59.068Z,79.43
2017-01-27T02:56:29.088Z,78.77
2017-01-27T02:56:59.116Z,78.86
2017-01-27T02:57:29.148Z,79.33
2017-01-27T02:57:59.174Z,78.77
2017-01-27T02:58:29.194Z,78.96
2017-01-27T02:58:59.225Z,78.86
2017-01-27T02:59:29.250Z,78.96
2017-01-27T02:59:59.289Z,78.77
2017-01-27T03:00:29.306Z,78.67
2017-01-27T03:00:59.334Z,78.86
2017-01-27T03:01:29.361Z,78.96
2017-01-27T03:01:59.390Z,79.14
2017-01-27T03:02:29.412Z,78.96
2017-01-27T03:02:59.438Z,78.86
2017-01-27T03:03:29.465Z,79.05
2017-01-27T03:03:59.492Z,78.96
2017-01-27T03:04:29.523Z,78.86
2017-01-27T03:04:59.549Z,78.67
2017-01-27T03:05:29.576Z,78.96
2017-01-27T03:05:59.605Z,78.86
2017-01-27T03:06:29.482Z,78.96
2017-01-27T03:06:59.660Z,78.96
2017-01-27T03:07:29.685Z,78.96
2017-01-27T03:07:59.712Z,78.67
2017-01-27T03:08:29.737Z,78.96
2017-01-27T03:09:00.116Z,78.77
2017-01-27T03:09:29.791Z,79.24
2017-01-27T03:09:59.818Z,78.58
2017-01-27T03:10:29.849Z,78.77
2017-01-27T03:10:59.875Z,78.96
2017-01-27T03:11:29.931Z,78.86
2017-01-27T03:11:59.928Z,78.96
2017-01-27T03:12:29.956Z,79.24
2017-01-27T03:12:59.982Z,78.77
2017-01-27T03:13:30.009Z,78.67
2017-01-27T03:14:00.036Z,78.96
2017-01-27T03:14:30.067Z,78.77
2017-01-27T03:15:00.093Z,78.96
2017-01-27T03:15:30.118Z,78.67
2017-01-27T03:16:00.145Z,79.05
2017-01-27T03:16:30.171Z,79.14
2017-01-27T03:17:00.200Z,79.14
2017-01-27T03:17:30.225Z,79.05
2017-01-27T03:18:00.110Z,79.05
2017-01-27T03:18:30.283Z,79.05
2017-01-27T03:19:00.307Z,79.24
2017-01-27T03:19:30.336Z,79.43
2017-01-27T03:20:00.215Z,79.61
2017-01-27T03:20:30.243Z,79.43
2017-01-27T03:21:00.416Z,79.52
2017-01-27T03:21:30.442Z,79.71
2017-01-27T03:22:00.468Z,79.99
2017-01-27T03:22:30.499Z,80.08
2017-01-27T03:23:00.524Z,80.18
2017-01-27T03:23:30.551Z,80.27
2017-01-27T03:24:00.585Z,80.08
2017-01-27T03:24:30.907Z,80.18
2017-01-27T03:25:00.634Z,79.9
2017-01-27T03:25:30.666Z,79.71
2017-01-27T03:26:00.687Z,79.9
2017-01-27T03:26:30.714Z,79.99
2017-01-27T03:27:00.743Z,79.9
2017-01-27T03:27:30.779Z,79.52
2017-01-27T03:28:00.806Z,79.24
2017-01-27T03:28:30.824Z,79.33
2017-01-27T03:29:00.852Z,79.52
2017-01-27T03:29:30.875Z,79.43
2017-01-27T03:30:00.903Z,79.05
2017-01-27T03:30:30.934Z,79.61
2017-01-27T03:31:00.956Z,78.77
2017-01-27T03:31:30.983Z,79.33
2017-01-27T03:32:01.016Z,78.86
2017-01-27T03:32:31.037Z,79.05
2017-01-27T03:33:01.072Z,78.96
2017-01-27T03:33:31.093Z,78.96
2017-01-27T03:34:01.122Z,79.05
2017-01-27T03:34:31.150Z,79.05
2017-01-27T03:35:01.173Z,78.58
2017-01-27T03:35:31.203Z,78.58
2017-01-27T03:36:01.232Z,78.2
2017-01-27T03:36:31.258Z,78.3
2017-01-27T03:37:01.286Z,78.3
2017-01-27T03:37:31.313Z,78.39
2017-01-27T03:38:01.345Z,78.58
2017-01-27T03:38:31.365Z,78.58
2017-01-27T03:39:01.394Z,78.77
2017-01-27T03:39:31.425Z,78.58
2017-01-27T03:40:01.451Z,79.05
2017-01-27T03:40:31.472Z,79.14
2017-01-27T03:41:01.506Z,78.86
2017-01-27T03:41:31.528Z,78.96
2017-01-27T03:42:01.885Z,79.05
2017-01-27T03:42:31.585Z,79.05
2017-01-27T03:43:01.906Z,79.05
2017-01-27T03:43:31.639Z,79.05
2017-01-27T03:44:01.665Z,78.96
2017-01-27T03:44:31.690Z,78.77
2017-01-27T03:45:01.970Z,79.05
2017-01-27T03:45:31.604Z,79.05
2017-01-27T03:46:01.828Z,78.58
2017-01-27T03:46:31.802Z,78.49
2017-01-27T03:47:01.830Z,78.58
2017-01-27T03:47:31.856Z,78.67
2017-01-27T03:48:01.885Z,78.67
2017-01-27T03:48:31.907Z,78.77
2017-01-27T03:49:02.145Z,78.58
2017-01-27T03:49:31.970Z,78.58
2017-01-27T03:50:01.997Z,78.58
2017-01-27T03:50:32.014Z,78.49
2017-01-27T03:51:02.044Z,78.3
2017-01-27T03:51:32.076Z,78.77
2017-01-27T03:52:02.252Z,78.49
2017-01-27T03:52:31.982Z,78.3
2017-01-27T03:53:02.154Z,78.67
2017-01-27T03:53:32.187Z,78.49
2017-01-27T03:54:02.409Z,78.67
2017-01-27T03:54:32.245Z,78.77
2017-01-27T03:55:02.414Z,78.49
2017-01-27T03:55:32.291Z,78.58
2017-01-27T03:56:02.321Z,78.58
2017-01-27T03:56:32.349Z,78.58
2017-01-27T03:57:02.370Z,78.67
2017-01-27T03:57:32.398Z,79.05
2017-01-27T03:58:02.528Z,78.96
2017-01-27T03:58:32.454Z,79.24
2017-01-27T03:59:02.680Z,78.96
2017-01-27T03:59:32.507Z,79.14
2017-01-27T04:00:02.538Z,78.96
2017-01-27T04:00:32.558Z,78.96
2017-01-27T04:01:02.685Z,78.86
2017-01-27T04:01:32.614Z,79.05
2017-01-27T04:02:02.644Z,79.05
2017-01-27T04:02:32.668Z,79.05
2017-01-27T04:03:02.899Z,78.67
2017-01-27T04:03:32.726Z,78.58
2017-01-27T04:04:02.757Z,78.67
2017-01-27T04:04:32.804Z,78.67
2017-01-27T04:05:02.809Z,78.77
2017-01-27T04:05:32.830Z,78.77
2017-01-27T04:06:03.010Z,78.67
2017-01-27T04:06:32.889Z,78.58
2017-01-27T04:07:02.917Z,78.3
2017-01-27T04:07:32.936Z,78.39
2017-01-27T04:08:03.220Z,78.49
2017-01-27T04:08:32.997Z,78.11
2017-01-27T04:09:03.021Z,78.2
2017-01-27T04:09:33.053Z,77.83
2017-01-27T04:10:03.080Z,77.92
2017-01-27T04:10:33.354Z,77.64
2017-01-27T04:11:03.134Z,77.45
2017-01-27T04:11:33.158Z,77.26
2017-01-27T04:12:03.186Z,77.17
2017-01-27T04:12:33.214Z,77.55
2017-01-27T04:13:03.245Z,77.55
2017-01-27T04:13:33.267Z,77.64
2017-01-27T04:14:03.295Z,77.45
2017-01-27T04:14:33.323Z,77.55
2017-01-27T04:15:03.355Z,77.64
2017-01-27T04:15:33.627Z,77.64
2017-01-27T04:16:03.408Z,77.55
2017-01-27T04:16:33.429Z,77.64
2017-01-27T04:17:03.461Z,77.17
2017-01-27T04:17:33.511Z,77.36
2017-01-27T04:18:03.513Z,77.73
2017-01-27T04:18:33.564Z,78.11
2017-01-27T04:19:03.570Z,77.83
2017-01-27T04:19:33.592Z,77.92
2017-01-27T04:20:03.612Z,78.11
2017-01-27T04:20:33.644Z,78.49
2017-01-27T04:21:03.670Z,78.49
2017-01-27T04:21:33.699Z,78.2
2017-01-27T04:22:03.729Z,78.2
2017-01-27T04:22:33.752Z,78.67
2017-01-27T04:23:03.783Z,78.49
2017-01-27T04:23:33.810Z,78.67
2017-01-27T04:24:03.834Z,78.77
2017-01-27T04:24:33.860Z,78.86
2017-01-27T04:25:03.886Z,78.49
2017-01-27T04:25:33.917Z,78.39
2017-01-27T04:26:03.943Z,78.49
2017-01-27T04:26:33.824Z,78.58
2017-01-27T04:27:03.992Z,78.49
2017-01-27T04:27:34.021Z,78.67
2017-01-27T04:28:04.052Z,78.58
2017-01-27T04:28:34.077Z,79.14
2017-01-27T04:29:04.099Z,79.05
2017-01-27T04:29:34.127Z,78.86
2017-01-27T04:30:04.158Z,79.05
2017-01-27T04:30:34.177Z,78.86
2017-01-27T04:31:04.217Z,78.96
2017-01-27T04:31:34.235Z,79.05
2017-01-27T04:32:04.265Z,78.86
2017-01-27T04:32:34.295Z,78.86
2017-01-27T04:33:04.317Z,78.96
2017-01-27T04:33:34.340Z,78.96
2017-01-27T04:34:04.369Z,79.05
2017-01-27T04:34:34.396Z,78.86
2017-01-27T04:35:04.445Z,79.05
2017-01-27T04:35:34.447Z,78.77
2017-01-27T04:36:04.728Z,78.96
2017-01-27T04:36:34.510Z,78.96
2017-01-27T04:37:04.532Z,78.58
2017-01-27T04:37:34.557Z,78.49
2017-01-27T04:38:04.588Z,78.58
2017-01-27T04:38:34.612Z,78.58
2017-01-27T04:39:04.637Z,78.77
2017-01-27T04:39:34.665Z,78.58
2017-01-27T04:40:04.700Z,78.02
2017-01-27T04:40:34.715Z,78.3
2017-01-27T04:41:04.994Z,78.2
2017-01-27T04:41:34.778Z,78.39
2017-01-27T04:42:04.805Z,78.39
2017-01-27T04:42:34.829Z,78.49
2017-01-27T04:43:04.861Z,78.58
2017-01-27T04:43:34.884Z,78.2
2017-01-27T04:44:04.912Z,77.92
2017-01-27T04:44:34.935Z,78.11
2017-01-27T04:45:04.968Z,78.2
2017-01-27T04:45:34.988Z,78.02
2017-01-27T04:46:04.869Z,77.73
2017-01-27T04:46:35.049Z,77.73
2017-01-27T04:47:05.067Z,77.83
2017-01-27T04:47:35.101Z,77.92
2017-01-27T04:48:05.128Z,77.92
2017-01-27T04:48:35.154Z,77.83
2017-01-27T04:49:05.183Z,78.02
2017-01-27T04:49:35.214Z,77.64
2017-01-27T04:50:05.234Z,77.45
2017-01-27T04:50:35.263Z,78.02
2017-01-27T04:51:05.283Z,77.92
2017-01-27T04:51:35.312Z,77.92
2017-01-27T04:52:05.347Z,77.45
2017-01-27T04:52:35.367Z,77.17
2017-01-27T04:53:05.395Z,77.36
2017-01-27T04:53:35.422Z,77.17
2017-01-27T04:54:05.450Z,77.26
2017-01-27T04:54:35.479Z,77.26
2017-01-27T04:55:05.502Z,77.45
2017-01-27T04:55:35.529Z,77.55
2017-01-27T04:56:05.554Z,77.26
2017-01-27T04:56:35.963Z,77.26
2017-01-27T04:57:05.611Z,77.55
2017-01-27T04:57:35.638Z,77.26
2017-01-27T04:58:05.660Z,77.26
2017-01-27T04:58:35.699Z,77.26
2017-01-27T04:59:05.580Z,77.55
2017-01-27T04:59:35.742Z,77.26
2017-01-27T05:00:05.772Z,77.26
2017-01-27T05:00:35.798Z,77.26
2017-01-27T05:01:05.823Z,77.17
2017-01-27T05:01:35.850Z,77.36
2017-01-27T05:02:05.878Z,77.26
2017-01-27T05:02:35.904Z,77.26
2017-01-27T05:03:05.934Z,77.45
2017-01-27T05:03:35.959Z,77.45
2017-01-27T05:04:05.988Z,77.83
2017-01-27T05:04:36.011Z,78.11
2017-01-27T05:05:06.039Z,78.02
2017-01-27T05:05:36.067Z,78.02
2017-01-27T05:06:06.090Z,78.2
2017-01-27T05:06:36.116Z,77.92
2017-01-27T05:07:06.147Z,78.11
2017-01-27T05:07:36.170Z,78.2
2017-01-27T05:08:06.205Z,78.77
2017-01-27T05:08:36.237Z,78.49
2017-01-27T05:09:06.260Z,78.77
2017-01-27T05:09:36.280Z,78.77
2017-01-27T05:10:06.308Z,79.05
2017-01-27T05:10:36.335Z,79.05
2017-01-27T05:11:06.366Z,79.05
2017-01-27T05:11:36.389Z,78.96
2017-01-27T05:12:06.415Z,79.05
2017-01-27T05:12:36.441Z,79.05
2017-01-27T05:13:06.471Z,78.49
2017-01-27T05:13:36.503Z,78.67
2017-01-27T05:14:06.524Z,79.43
2017-01-27T05:14:36.552Z,78.77
2017-01-27T05:15:06.581Z,79.14
2017-01-27T05:15:36.606Z,79.33
2017-01-27T05:16:06.628Z,79.33
2017-01-27T05:16:36.657Z,79.24
2017-01-27T05:17:06.934Z,78.86
2017-01-27T05:17:36.707Z,78.77
2017-01-27T05:18:06.744Z,78.58
2017-01-27T05:18:36.762Z,78.58
2017-01-27T05:19:06.791Z,79.52
2017-01-27T05:19:36.817Z,79.05
2017-01-27T05:20:06.846Z,79.05
2017-01-27T05:20:36.875Z,78.96
2017-01-27T05:21:06.901Z,79.14
2017-01-27T05:21:36.935Z,78.77
2017-01-27T05:22:06.957Z,78.67
2017-01-27T05:22:36.980Z,78.67
2017-01-27T05:23:07.005Z,78.3
2017-01-27T05:23:37.038Z,78.2
2017-01-27T05:24:07.063Z,78.3
2017-01-27T05:24:37.089Z,78.67
2017-01-27T05:25:07.117Z,78.86
2017-01-27T05:25:37.144Z,78.58
2017-01-27T05:26:07.169Z,78.67
2017-01-27T05:26:37.199Z,78.58
2017-01-27T05:27:07.226Z,78.58
2017-01-27T05:27:37.252Z,78.58
2017-01-27T05:28:07.276Z,78.49
2017-01-27T05:28:37.307Z,78.58
2017-01-27T05:29:07.332Z,78.67
2017-01-27T05:29:37.363Z,78.67
2017-01-27T05:30:07.391Z,78.67
2017-01-27T05:30:37.415Z,78.02
2017-01-27T05:31:07.441Z,78.02
2017-01-27T05:31:37.470Z,78.3
2017-01-27T05:32:07.493Z,78.2
2017-01-27T05:32:37.776Z,78.02
2017-01-27T05:33:07.546Z,78.49
2017-01-27T05:33:37.581Z,78.58
2017-01-27T05:34:07.600Z,78.86
2017-01-27T05:34:37.627Z,78.58
2017-01-27T05:35:07.652Z,78.77
2017-01-27T05:35:37.679Z,78.49
2017-01-27T05:36:07.715Z,79.05
2017-01-27T05:36:37.741Z,78.86
2017-01-27T05:37:07.769Z,78.96
2017-01-27T05:37:38.040Z,78.96
2017-01-27T05:38:07.819Z,78.96
2017-01-27T05:38:37.848Z,78.96
2017-01-27T05:39:07.874Z,78.96
2017-01-27T05:39:37.902Z,78.96
2017-01-27T05:40:07.924Z,78.96
2017-01-27T05:40:37.948Z,78.96
2017-01-27T05:41:07.981Z,78.77
2017-01-27T05:41:38.010Z,79.05
2017-01-27T05:42:08.034Z,78.96
2017-01-27T05:42:38.059Z,78.96
2017-01-27T05:43:08.089Z,78.86
2017-01-27T05:43:38.113Z,78.58
2017-01-27T05:44:08.143Z,78.96
2017-01-27T05:44:38.174Z,79.24
2017-01-27T05:45:08.194Z,79.05
2017-01-27T05:45:38.222Z,78.96
2017-01-27T05:46:08.257Z,78.86
2017-01-27T05:46:38.280Z,78.96
2017-01-27T05:47:08.304Z,79.14
2017-01-27T05:47:38.335Z,78.96
2017-01-27T05:48:08.356Z,78.67
2017-01-27T05:48:38.380Z,78.96
2017-01-27T05:49:08.410Z,79.33
2017-01-27T05:49:38.450Z,79.43
2017-01-27T05:50:08.477Z,79.24
2017-01-27T05:50:38.500Z,78.77
2017-01-27T05:51:08.520Z,79.24
2017-01-27T05:51:38.551Z,78.86
2017-01-27T05:52:08.573Z,78.86
2017-01-27T05:52:38.615Z,78.96
2017-01-27T05:53:08.924Z,78.96
2017-01-27T05:53:38.657Z,78.86
2017-01-27T05:54:08.685Z,79.43
2017-01-27T05:54:38.709Z,78.77
2017-01-27T05:55:08.736Z,79.33
2017-01-27T05:55:38.763Z,78.96
2017-01-27T05:56:08.793Z,78.77
2017-01-27T05:56:38.821Z,78.86
2017-01-27T05:57:08.844Z,79.14
2017-01-27T05:57:38.871Z,78.77
2017-01-27T05:58:08.904Z,78.3
2017-01-27T05:58:38.930Z,78.58
2017-01-27T05:59:08.952Z,78.67
2017-01-27T05:59:38.982Z,78.58
2017-01-27T06:00:09.007Z,78.58
2017-01-27T06:00:39.033Z,78.58
2017-01-27T06:01:09.054Z,78.58
2017-01-27T06:01:39.087Z,78.77
2017-01-27T06:02:09.116Z,78.02
2017-01-27T06:02:39.144Z,78.11
2017-01-27T06:03:09.169Z,78.58
2017-01-27T06:03:39.206Z,78.11
2017-01-27T06:04:09.100Z,77.83
2017-01-27T06:04:39.251Z,77.73
2017-01-27T06:05:09.276Z,77.83
2017-01-27T06:05:39.300Z,78.11
2017-01-27T06:06:09.332Z,77.92
2017-01-27T06:06:39.359Z,77.64
2017-01-27T06:07:09.383Z,77.83
2017-01-27T06:07:39.409Z,77.45
2017-01-27T06:08:09.435Z,77.45
2017-01-27T06:08:39.471Z,77.36
2017-01-27T06:09:09.491Z,77.64
2017-01-27T06:09:39.522Z,77.64
2017-01-27T06:10:09.547Z,77.55
2017-01-27T06:10:39.571Z,77.55
2017-01-27T06:11:09.601Z,77.55
2017-01-27T06:11:39.628Z,77.64
2017-01-27T06:12:09.657Z,77.64
2017-01-27T06:12:39.706Z,77.64
2017-01-27T06:13:09.706Z,77.55
2017-01-27T06:13:40.036Z,77.45
2017-01-27T06:14:09.763Z,77.64
2017-01-27T06:14:39.786Z,77.64
2017-01-27T06:15:09.816Z,77.64
2017-01-27T06:15:39.841Z,77.64
2017-01-27T06:16:09.865Z,77.73
2017-01-27T06:16:39.896Z,77.64
2017-01-27T06:17:09.927Z,77.17
2017-01-27T06:17:39.951Z,77.17
2017-01-27T06:18:09.829Z,77.17
2017-01-27T06:18:40.010Z,77.17
2017-01-27T06:19:10.029Z,77.17
2017-01-27T06:19:40.055Z,77.45
2017-01-27T06:20:10.083Z,77.17
2017-01-27T06:20:40.107Z,77.17
2017-01-27T06:21:09.986Z,76.98
2017-01-27T06:21:40.160Z,77.07
2017-01-27T06:22:10.187Z,77.07
2017-01-27T06:22:40.216Z,76.79
2017-01-27T06:23:10.253Z,76.75
2017-01-27T06:23:40.269Z,76.46
2017-01-27T06:24:10.296Z,75.99
2017-01-27T06:24:40.323Z,76.09
2017-01-27T06:25:10.206Z,76.09
2017-01-27T06:25:40.380Z,76.09
2017-01-27T06:26:10.266Z,75.71
2017-01-27T06:26:40.426Z,75.99
2017-01-27T06:27:10.459Z,75.99
2017-01-27T06:27:40.489Z,76.09
2017-01-27T06:28:10.513Z,75.9